Terminal Aerodrome Forecast
Issued by NWS

Home | Current Version | Previous Version | Text Only | Print | Product List | Glossary On
Versions: 1 2 3 4 5 6 7 8 9 10 11 12 13 14 15 16 17 18 19 20 21
000
FTPA31 PHFO 232334
TAFHNY
TAF
PHNY 232334Z 2400/2424 04018G25KT P6SM SCT025 BKN035
      TEMPO 2400/2404 BKN020
     FM240600 05014KT P6SM SCT020 SCT035
     FM242000 04018G25KT P6SM SCT015 BKN035=

USA.gov is the U.S. government's official web portal to all federal, state and local government web resources and services.